Time;durP1;ratioP1;P1;durP2;ratioP2;P2;SDS_P1;SDS_P2;PMS_P1;PMS_P2;Temp;Humidity;BMP_temperature;BMP_pressure;BME280_temperature;BME280_humidity;BME280_pressure;Samples;Min_cycle;Max_cycle;Signal;HPM_P1;HPM_P2
2022/01/06 00:04:59;;;;;;;60.23;55.80;;;;;;;1.17;100.00;102196.64;1998575;71;32886;-76
2022/01/06 00:10:46;;;;;;;59.03;54.80;;;;;;;1.24;100.00;102209.37;2012966;71;32883;-72
2022/01/06 00:16:38;;;;;;;56.67;52.03;;;;;;;1.03;100.00;102203.00;2015020;71;33293;-77
2022/01/06 00:28:25;;;;;;;61.50;56.57;;;;;;;1.08;100.00;102193.68;2005649;71;32810;-77
2022/01/06 00:34:11;;;;;;;57.07;52.80;;;;;;;0.94;100.00;102187.20;2012033;71;32780;-79
2022/01/06 00:39:56;;;;;;;52.63;48.20;;;;;;;1.01;100.00;102187.28;2014877;71;33314;-77
2022/01/06 00:45:41;;;;;;;52.63;48.63;;;;;;;0.74;100.00;102181.95;2007884;71;32844;-71
2022/01/06 00:51:25;;;;;;;53.40;49.37;;;;;;;0.66;100.00;102200.67;2006064;71;32864;-79
2022/01/06 00:57:09;;;;;;;54.23;50.07;;;;;;;0.51;100.00;102198.97;2011320;71;32890;-77
2022/01/06 01:02:54;;;;;;;55.20;50.73;;;;;;;0.55;100.00;102201.66;2002509;71;32857;-77
2022/01/06 01:08:39;;;;;;;53.97;49.70;;;;;;;0.54;100.00;102219.08;2004064;71;32850;-71
2022/01/06 01:14:28;;;;;;;55.27;50.77;;;;;;;0.60;100.00;102212.34;2009787;71;32766;-71
2022/01/06 01:20:12;;;;;;;55.27;50.70;;;;;;;0.66;100.00;102228.02;2004286;71;32889;-72
2022/01/06 01:25:56;;;;;;;53.93;49.70;;;;;;;0.62;100.00;102232.16;2018502;71;33369;-72
2022/01/06 01:31:44;;;;;;;52.20;47.97;;;;;;;0.68;100.00;102229.20;2003823;71;32933;-72
2022/01/06 01:37:27;;;;;;;55.43;51.30;;;;;;;0.66;100.00;102229.38;2009370;71;32936;-72
2022/01/06 01:43:13;;;;;;;54.70;50.43;;;;;;;0.51;100.00;102229.89;2002456;71;32775;-76
2022/01/06 01:49:15;;;;;;;56.37;51.83;;;;;;;0.56;100.00;102231.52;2018446;71;32971;-78
2022/01/06 01:54:56;;;;;;;56.40;52.07;;;;;;;0.50;100.00;102239.63;2004227;71;32804;-72
2022/01/06 02:00:43;;;;;;;53.97;49.77;;;;;;;0.56;100.00;102237.53;2013291;71;32809;-75
2022/01/06 02:06:27;;;;;;;53.43;49.40;;;;;;;0.38;100.00;102241.45;2016709;71;32818;-76
2022/01/06 02:12:30;;;;;;;54.23;49.80;;;;;;;0.37;100.00;102229.33;1932757;74;33539;-72
2022/01/06 02:18:14;;;;;;;53.77;49.73;;;;;;;0.34;100.00;102245.56;2011560;71;32754;-76
2022/01/06 02:23:58;;;;;;;53.90;49.67;;;;;;;0.38;100.00;102228.30;2015084;71;33354;-76
2022/01/06 02:29:43;;;;;;;54.23;50.10;;;;;;;0.32;100.00;102216.73;2004563;71;32762;-72
2022/01/06 02:35:28;;;;;;;54.80;50.90;;;;;;;0.53;100.00;102208.66;2002699;71;33291;-72
2022/01/06 02:41:15;;;;;;;53.00;48.83;;;;;;;0.30;100.00;102206.52;2006288;71;32825;-75
2022/01/06 02:46:58;;;;;;;52.93;48.70;;;;;;;0.35;100.00;102204.91;2011694;71;32855;-72
2022/01/06 02:52:43;;;;;;;56.07;51.93;;;;;;;0.12;100.00;102208.20;1995185;71;32837;-76
2022/01/06 02:58:28;;;;;;;55.90;51.83;;;;;;;0.15;100.00;102218.75;2018229;71;32903;-75
2022/01/06 03:04:14;;;;;;;54.40;50.10;;;;;;;0.08;100.00;102222.41;2007530;71;32828;-71
2022/01/06 03:09:59;;;;;;;54.83;50.20;;;;;;;0.11;100.00;102217.94;2006236;71;32776;-72
2022/01/06 03:15:43;;;;;;;54.80;50.37;;;;;;;0.22;100.00;102217.48;2009754;71;32770;-71
2022/01/06 03:21:27;;;;;;;53.90;49.63;;;;;;;0.28;100.00;102215.40;2004476;71;32756;-71
2022/01/06 03:27:11;;;;;;;55.00;50.43;;;;;;;0.27;100.00;102213.70;2018430;71;32922;-76
2022/01/06 03:32:55;;;;;;;54.97;50.77;;;;;;;0.23;100.00;102215.09;2009361;71;32822;-72
2022/01/06 03:38:40;;;;;;;53.87;49.30;;;;;;;0.29;100.00;102219.84;2011615;71;32917;-72
2022/01/06 03:44:25;;;;;;;55.47;51.13;;;;;;;0.15;100.00;102214.66;1996948;71;32844;-76
2022/01/06 03:50:12;;;;;;;53.60;49.40;;;;;;;0.19;100.00;102217.87;2011258;70;33258;-72
2022/01/06 03:55:56;;;;;;;56.40;52.10;;;;;;;0.04;100.00;102212.88;2015131;71;33293;-72
2022/01/06 04:01:40;;;;;;;55.40;51.23;;;;;;;0.08;100.00;102217.80;2003722;71;32889;-72
2022/01/06 04:07:28;;;;;;;55.20;51.07;;;;;;;0.17;100.00;102215.85;2000933;71;33280;-76
2022/01/06 04:13:12;;;;;;;56.87;52.13;;;;;;;0.14;100.00;102221.66;2014871;70;32842;-76
2022/01/06 04:18:56;;;;;;;52.77;48.57;;;;;;;0.01;100.00;102225.00;2003760;71;33322;-72
2022/01/06 04:24:40;;;;;;;55.40;51.23;;;;;;;-0.02;100.00;102224.87;2000470;71;32879;-72
2022/01/06 04:30:24;;;;;;;53.43;49.13;;;;;;;0.07;100.00;102209.77;2009507;71;32910;-75
2022/01/06 04:36:09;;;;;;;53.83;49.77;;;;;;;-0.08;100.00;102210.56;2003836;71;32929;-76
2022/01/06 04:41:54;;;;;;;51.27;47.33;;;;;;;-0.13;100.00;102206.16;1991444;71;32886;-72
2022/01/06 04:47:42;;;;;;;51.53;47.40;;;;;;;-0.31;100.00;102197.95;1998533;71;33349;-71
2022/01/06 04:53:26;;;;;;;52.33;48.43;;;;;;;-0.30;100.00;102201.84;2003987;71;32827;-71
2022/01/06 04:59:10;;;;;;;52.60;48.77;;;;;;;-0.25;100.00;102196.69;2016458;71;32808;-71
2022/01/06 05:04:53;;;;;;;55.33;50.73;;;;;;;-0.33;100.00;102202.21;2011044;71;32829;-76
2022/01/06 05:10:37;;;;;;;55.60;51.17;;;;;;;-0.29;100.00;102197.23;2003864;71;32820;-71
2022/01/06 05:16:24;;;;;;;56.20;51.80;;;;;;;-0.19;100.00;102197.86;2014908;71;33389;-75
2022/01/06 05:22:08;;;;;;;53.30;49.10;;;;;;;-0.24;100.00;102198.91;2016686;71;32999;-76
2022/01/06 05:27:52;;;;;;;51.77;47.47;;;;;;;-0.11;100.00;102186.36;1977794;72;33365;-76
2022/01/06 05:33:36;;;;;;;53.50;49.10;;;;;;;-0.35;100.00;102178.36;2004397;71;33310;-75
2022/01/06 05:39:21;;;;;;;55.03;50.73;;;;;;;-0.22;100.00;102170.41;2003837;71;32885;-76
2022/01/06 05:45:07;;;;;;;53.50;49.37;;;;;;;-0.26;100.00;102165.50;2013530;71;33262;-76
2022/01/06 05:50:52;;;;;;;54.03;49.97;;;;;;;-0.24;100.00;102173.83;1997169;71;33282;-75
2022/01/06 05:56:37;;;;;;;53.63;49.27;;;;;;;-0.10;100.00;102163.48;2013469;71;32816;-75
2022/01/06 06:02:21;;;;;;;55.13;50.70;;;;;;;-0.25;100.00;102165.30;2013118;71;32816;-78
2022/01/06 06:08:06;;;;;;;55.43;50.70;;;;;;;-0.23;100.00;102178.77;2009234;71;32962;-71
2022/01/06 06:13:50;;;;;;;55.00;50.63;;;;;;;-0.19;100.00;102170.55;2015063;71;33367;-76
2022/01/06 06:19:35;;;;;;;54.67;50.27;;;;;;;-0.48;100.00;102185.78;2000866;71;33288;-75
2022/01/06 06:25:22;;;;;;;52.90;48.57;;;;;;;-0.37;100.00;102185.86;2009388;71;32833;-71
2022/01/06 06:31:06;;;;;;;53.27;49.17;;;;;;;-0.28;100.00;102183.41;2004481;70;33245;-76
2022/01/06 06:36:50;;;;;;;51.97;47.60;;;;;;;-0.31;100.00;102185.66;2013051;71;32839;-75
2022/01/06 06:42:34;;;;;;;53.37;48.93;;;;;;;-0.35;100.00;102190.64;2014909;71;33360;-72
2022/01/06 06:48:24;;;;;;;55.10;50.53;;;;;;;-0.31;100.00;102167.41;2013118;71;32871;-71
2022/01/06 06:54:10;;;;;;;54.43;49.87;;;;;;;-0.19;100.00;102161.84;1991494;71;32819;-76
2022/01/06 07:00:02;;;;;;;54.93;50.23;;;;;;;-0.21;100.00;102160.31;2000246;70;33385;-75
2022/01/06 07:05:43;;;;;;;55.57;50.63;;;;;;;-0.31;100.00;102167.41;2000848;71;32999;-78
2022/01/06 07:11:27;;;;;;;54.57;49.90;;;;;;;-0.29;100.00;102164.47;2006256;71;33226;-75
2022/01/06 07:17:12;;;;;;;55.43;51.00;;;;;;;-0.25;100.00;102152.16;1997077;71;33974;-71
2022/01/06 07:22:56;;;;;;;55.03;50.90;;;;;;;-0.29;100.00;102154.92;2004480;71;32815;-70
2022/01/06 07:28:40;;;;;;;54.20;50.00;;;;;;;-0.27;100.00;102161.91;2013486;71;33350;-76
2022/01/06 07:34:25;;;;;;;55.50;51.27;;;;;;;-0.30;100.00;102173.17;2011010;71;32972;-76
2022/01/06 07:40:10;;;;;;;54.60;50.23;;;;;;;-0.46;100.00;102177.39;1999999;71;32901;-68
2022/01/06 07:45:54;;;;;;;55.13;50.50;;;;;;;-0.28;100.00;102186.14;2007688;71;33353;-73
2022/01/06 07:51:39;;;;;;;54.70;50.10;;;;;;;-0.23;100.00;102200.11;2018610;71;33332;-69
2022/01/06 07:57:23;;;;;;;55.33;51.03;;;;;;;-0.41;100.00;102202.78;2002033;71;32983;-77
2022/01/06 08:03:08;;;;;;;52.43;48.00;;;;;;;-0.41;100.00;102213.19;2009210;71;32942;-77
2022/01/06 08:08:52;;;;;;;55.00;50.47;;;;;;;-0.54;100.00;102214.28;2009789;71;32768;-75
2022/01/06 08:14:36;;;;;;;51.50;47.67;;;;;;;-0.56;100.00;102210.91;2018335;71;32890;-72
2022/01/06 08:20:20;;;;;;;53.37;49.33;;;;;;;-0.58;100.00;102211.58;2016599;71;33317;-69
2022/01/06 08:26:06;;;;;;;54.37;49.97;;;;;;;-0.52;100.00;102194.50;2012702;71;32905;-67
2022/01/06 08:31:50;;;;;;;58.03;53.73;;;;;;;-0.63;100.00;102191.65;2009453;71;33303;-67
2022/01/06 08:37:34;;;;;;;55.97;51.83;;;;;;;-0.61;100.00;102182.78;2005515;71;32818;-67
2022/01/06 08:43:20;;;;;;;53.30;49.17;;;;;;;-0.67;100.00;102168.99;2018603;71;33470;-71
2022/01/06 08:49:06;;;;;;;55.03;50.33;;;;;;;-0.11;100.00;102166.39;2011252;71;32843;-67
2022/01/06 08:54:51;;;;;;;54.70;50.63;;;;;;;-0.37;100.00;102160.44;2000795;71;33249;-67
2022/01/06 09:00:36;;;;;;;55.37;50.60;;;;;;;-0.13;100.00;102160.27;1991402;71;32868;-78
2022/01/06 09:06:21;;;;;;;53.30;48.60;;;;;;;0.03;100.00;102148.35;2007911;71;32766;-68
2022/01/06 09:12:06;;;;;;;59.63;54.57;;;;;;;0.38;100.00;102143.06;2007443;71;33341;-72
2022/01/06 09:17:50;;;;;;;55.60;51.37;;;;;;;0.35;100.00;102142.56;2000631;71;32825;-73
2022/01/06 09:23:35;;;;;;;57.30;52.67;;;;;;;0.50;100.00;102129.77;2016611;71;32819;-75
2022/01/06 09:29:19;;;;;;;55.23;50.53;;;;;;;0.72;100.00;102112.42;2000895;71;33283;-67
2022/01/06 09:35:04;;;;;;;53.87;49.37;;;;;;;0.91;100.00;102103.61;2007995;71;32778;-67
2022/01/06 09:40:49;;;;;;;59.73;55.33;;;;;;;1.01;100.00;102071.86;2002077;71;32896;-67
2022/01/06 09:46:38;;;;;;;54.93;50.70;;;;;;;1.13;100.00;102074.93;2011684;71;32825;-74
2022/01/06 09:52:24;;;;;;;54.07;49.20;;;;;;;1.33;100.00;102072.73;2011160;71;32895;-77
2022/01/06 09:58:10;;;;;;;53.00;47.93;;;;;;;1.44;100.00;102060.43;2006357;71;33238;-74
2022/01/06 10:03:54;;;;;;;53.80;49.33;;;;;;;1.65;100.00;102057.67;2015038;71;32827;-68
2022/01/06 10:09:41;;;;;;;54.07;49.10;;;;;;;2.04;100.00;102056.30;2016493;71;32815;-76
2022/01/06 10:15:29;;;;;;;51.63;47.47;;;;;;;2.09;100.00;102047.81;2007606;71;32954;-76
2022/01/06 10:21:15;;;;;;;53.50;49.43;;;;;;;2.24;100.00;102046.31;2002340;70;32756;-67
2022/01/06 10:27:04;;;;;;;55.63;51.13;;;;;;;2.26;100.00;102031.38;2011906;71;32859;-67
2022/01/06 10:32:49;;;;;;;53.73;49.27;;;;;;;2.36;100.00;102035.09;2011632;71;32754;-76
2022/01/06 10:38:33;;;;;;;53.83;49.63;;;;;;;2.47;100.00;102043.30;2009472;71;32815;-77
2022/01/06 10:44:30;;;;;;;54.27;49.40;;;;;;;2.72;100.00;102024.73;2016493;71;33001;-76
2022/01/06 10:50:17;;;;;;;56.57;51.90;;;;;;;2.72;100.00;102015.14;2014940;71;32925;-75
2022/01/06 10:56:03;;;;;;;55.37;50.67;;;;;;;2.82;100.00;102004.31;1994714;71;32917;-76
2022/01/06 11:01:47;;;;;;;54.10;49.47;;;;;;;2.89;100.00;101990.92;2000555;71;32835;-69
2022/01/06 11:07:32;;;;;;;52.63;48.23;;;;;;;3.03;100.00;101973.44;1997053;71;33337;-76
2022/01/06 11:13:19;;;;;;;54.17;50.03;;;;;;;3.10;100.00;101948.20;2006231;71;32981;-75
2022/01/06 11:19:08;;;;;;;54.37;50.27;;;;;;;3.16;100.00;101939.67;2014771;70;32880;-75
2022/01/06 11:24:55;;;;;;;53.97;49.70;;;;;;;3.28;100.00;101933.87;2014636;71;32826;-68
2022/01/06 11:30:51;;;;;;;52.10;48.03;;;;;;;3.36;100.00;101904.81;2009852;71;32811;-68
2022/01/06 11:36:36;;;;;;;54.87;50.70;;;;;;;3.48;100.00;101894.87;2011538;71;33426;-68
2022/01/06 11:42:25;;;;;;;53.70;49.07;;;;;;;3.48;100.00;101898.14;2003879;70;33461;-77
2022/01/06 11:48:13;;;;;;;54.47;50.07;;;;;;;3.59;100.00;101885.97;1997001;71;32791;-75
2022/01/06 11:53:59;;;;;;;51.97;48.03;;;;;;;3.66;100.00;101889.57;1990599;71;32897;-76
2022/01/06 11:59:45;;;;;;;48.73;44.90;;;;;;;3.86;100.00;101883.16;1997040;71;32822;-76
2022/01/06 12:05:48;;;;;;;50.77;46.73;;;;;;;3.88;100.00;101906.64;2014837;71;33313;-68
2022/01/06 12:11:34;;;;;;;50.87;46.80;;;;;;;3.92;100.00;101900.18;2013101;71;32838;-68
2022/01/06 12:17:23;;;;;;;49.67;45.87;;;;;;;3.98;100.00;101874.59;2016827;71;33318;-67
2022/01/06 12:23:06;;;;;;;49.70;46.03;;;;;;;4.11;100.00;101849.77;2014933;71;32909;-67
2022/01/06 12:28:51;;;;;;;48.70;45.00;;;;;;;4.20;100.00;101841.58;1998354;71;32838;-78
2022/01/06 12:34:40;;;;;;;49.23;45.53;;;;;;;4.37;100.00;101833.66;2002535;71;32850;-67
2022/01/06 12:40:35;;;;;;;49.13;45.30;;;;;;;4.41;100.00;101826.13;1994622;71;32994;-68
2022/01/06 12:46:35;;;;;;;48.27;44.80;;;;;;;4.58;100.00;101803.05;2004034;71;32824;-77
2022/01/06 12:52:19;;;;;;;47.33;43.87;;;;;;;4.70;100.00;101779.28;2014928;71;32874;-68
2022/01/06 12:58:04;;;;;;;46.80;43.23;;;;;;;4.89;100.00;101771.38;2003955;71;32840;-76
2022/01/06 13:03:53;;;;;;;46.80;43.57;;;;;;;5.12;100.00;101760.27;2013439;71;32994;-68
2022/01/06 13:09:38;;;;;;;46.77;43.57;;;;;;;5.20;100.00;101743.44;2007761;71;32828;-76
2022/01/06 13:15:34;;;;;;;45.87;42.73;;;;;;;5.48;100.00;101740.45;2015075;71;32824;-68
2022/01/06 13:21:28;;;;;;;47.07;43.60;;;;;;;5.41;100.00;101728.69;1994660;71;32932;-69
2022/01/06 13:27:13;;;;;;;47.27;44.00;;;;;;;5.48;100.00;101703.26;2000254;70;32842;-76
2022/01/06 13:32:59;;;;;;;47.93;44.53;;;;;;;5.44;100.00;101681.37;2007851;71;33375;-77
2022/01/06 13:38:43;;;;;;;46.53;43.23;;;;;;;5.63;100.00;101668.95;2013427;71;33242;-68
2022/01/06 13:44:28;;;;;;;48.00;44.90;;;;;;;5.66;100.00;101654.70;2016561;71;32821;-68
2022/01/06 13:56:32;;;;;;;50.07;46.47;;;;;;;5.69;100.00;101624.75;2018455;71;32927;-76
2022/01/06 14:02:20;;;;;;;48.83;45.70;;;;;;;5.73;100.00;101612.21;1991447;71;32805;-74
2022/01/06 14:08:04;;;;;;;49.77;46.17;;;;;;;5.88;100.00;101594.71;2014731;71;32945;-69
2022/01/06 14:13:50;;;;;;;48.93;45.57;;;;;;;5.93;100.00;101582.98;2018243;71;32834;-75
2022/01/06 14:19:38;;;;;;;48.00;44.90;;;;;;;5.92;100.00;101576.62;2010997;71;32962;-69
2022/01/06 14:25:21;;;;;;;49.10;45.50;;;;;;;5.92;100.00;101560.08;1995125;71;32838;-69
2022/01/06 14:31:07;;;;;;;47.70;44.40;;;;;;;5.94;100.00;101551.04;2016560;71;32932;-69
2022/01/06 14:36:53;;;;;;;44.77;41.60;;;;;;;6.02;100.00;101541.57;1998392;71;32933;-69
2022/01/06 14:42:39;;;;;;;46.33;43.03;;;;;;;6.09;100.00;101521.59;2009879;71;32766;-75
2022/01/06 14:48:24;;;;;;;48.73;45.43;;;;;;;6.07;100.00;101498.95;2003890;71;32833;-69
2022/01/06 14:54:08;;;;;;;48.03;44.67;;;;;;;6.09;100.00;101482.15;2016783;71;32896;-75
2022/01/06 14:59:53;;;;;;;47.77;44.57;;;;;;;6.04;100.00;101467.70;2016611;71;32896;-70
2022/01/06 15:05:38;;;;;;;47.93;44.63;;;;;;;6.13;100.00;101461.28;2004371;71;32982;-69
2022/01/06 15:11:22;;;;;;;47.63;44.47;;;;;;;6.27;100.00;101451.67;2005508;71;32830;-69
2022/01/06 15:17:07;;;;;;;45.73;42.40;;;;;;;6.41;100.00;101440.69;2005788;71;33381;-70
2022/01/06 15:22:51;;;;;;;44.57;41.73;;;;;;;6.60;100.00;101435.81;2014608;71;32948;-69
2022/01/06 15:28:35;;;;;;;45.67;42.67;;;;;;;6.61;100.00;101429.22;2002594;71;32770;-70
2022/01/06 15:34:19;;;;;;;48.37;44.63;;;;;;;6.53;100.00;101421.33;1995042;71;33409;-69
2022/01/06 15:40:03;;;;;;;46.80;43.63;;;;;;;6.63;100.00;101414.08;2011173;71;32839;-68
2022/01/06 15:45:48;;;;;;;45.23;42.30;;;;;;;6.76;100.00;101404.70;2005609;71;33343;-69
2022/01/06 15:51:33;;;;;;;43.97;40.90;;;;;;;6.85;100.00;101412.31;1998646;71;33309;-69
2022/01/06 15:57:17;;;;;;;41.43;38.73;;;;;;;6.98;100.00;101398.74;2000214;71;33518;-68
2022/01/06 16:09:06;;;;;;;40.23;37.60;;;;;;;7.43;100.00;101374.39;2016595;71;32868;-76
2022/01/06 16:14:52;;;;;;;39.83;37.43;;;;;;;7.55;100.00;101357.16;1995604;71;32832;-76
2022/01/06 16:20:36;;;;;;;40.00;37.43;;;;;;;7.61;100.00;101352.86;2016779;71;33449;-75
2022/01/06 16:26:21;;;;;;;39.83;37.40;;;;;;;7.59;100.00;101351.42;1987947;71;32998;-76
2022/01/06 16:32:15;;;;;;;39.17;36.80;;;;;;;7.70;100.00;101343.58;2014712;71;32851;-75
2022/01/06 16:38:00;;;;;;;40.50;38.00;;;;;;;7.66;100.00;101333.55;2003892;71;32821;-75
2022/01/06 16:43:45;;;;;;;39.50;36.83;;;;;;;7.66;100.00;101332.17;2003974;71;32964;-77
2022/01/06 16:49:30;;;;;;;41.50;38.60;;;;;;;7.67;100.00;101324.72;2000716;71;33335;-67
2022/01/06 16:55:15;;;;;;;45.50;42.37;;;;;;;7.62;100.00;101313.58;2015063;71;33296;-75
2022/01/06 17:00:59;;;;;;;43.70;40.60;;;;;;;7.63;100.00;101305.04;1997027;71;32824;-69
2022/01/06 17:06:43;;;;;;;43.53;40.60;;;;;;;7.73;100.00;101313.48;2009455;71;32835;-68
2022/01/06 17:12:27;;;;;;;43.43;40.43;;;;;;;7.77;100.00;101308.28;2004392;71;32863;-75
2022/01/06 17:18:11;;;;;;;43.40;40.70;;;;;;;7.80;100.00;101303.61;1991481;71;32858;-66
2022/01/06 17:23:56;;;;;;;43.23;40.47;;;;;;;7.79;100.00;101286.72;2009201;71;32894;-73
2022/01/06 17:29:40;;;;;;;45.73;42.63;;;;;;;7.86;100.00;101266.64;2011778;71;32788;-74
2022/01/06 17:35:25;;;;;;;47.17;43.60;;;;;;;7.87;100.00;101262.80;1995233;71;33268;-74
2022/01/06 17:41:09;;;;;;;46.87;43.67;;;;;;;7.82;100.00;101258.58;2007729;71;33321;-73
2022/01/06 17:46:53;;;;;;;48.90;45.13;;;;;;;7.85;100.00;101255.29;2009184;71;32941;-73
2022/01/06 17:52:37;;;;;;;47.53;43.97;;;;;;;7.90;100.00;101240.69;2014856;71;33265;-69
2022/01/06 17:58:24;;;;;;;46.27;43.00;;;;;;;7.89;100.00;101240.39;2014642;71;32957;-71
2022/01/06 18:04:10;;;;;;;48.63;44.83;;;;;;;7.94;100.00;101224.70;1971428;70;101220;-77
2022/01/06 18:16:10;;;;;;;52.40;48.53;;;;;;;7.93;100.00;101223.02;2010208;71;32776;-76
2022/01/06 18:21:55;;;;;;;50.17;46.37;;;;;;;7.89;100.00;101225.17;1995994;71;32765;-74
2022/01/06 18:27:39;;;;;;;51.53;47.93;;;;;;;7.83;100.00;101217.94;1959868;72;33020;-74
2022/01/06 18:33:26;;;;;;;51.10;47.37;;;;;;;7.82;100.00;101225.39;1995094;71;32762;-78
2022/01/06 18:39:10;;;;;;;49.87;46.30;;;;;;;7.80;100.00;101212.35;2013162;71;32835;-79
2022/01/06 18:44:55;;;;;;;49.37;45.77;;;;;;;7.88;100.00;101198.06;1991533;71;33257;-78
2022/01/06 18:50:40;;;;;;;50.00;46.50;;;;;;;7.92;100.00;101200.59;1995036;71;32842;-76
2022/01/06 18:59:44;;;;;;;49.33;45.77;;;;;;;7.92;100.00;101205.29;2014924;70;32969;-78
2022/01/06 19:05:29;;;;;;;48.80;45.20;;;;;;;7.96;100.00;101200.37;2008149;70;33291;-76
2022/01/06 19:11:14;;;;;;;47.50;44.00;;;;;;;7.99;100.00;101197.65;2016698;71;33325;-78
2022/01/06 19:16:58;;;;;;;49.67;46.27;;;;;;;7.98;100.00;101202.34;1994596;71;32927;-74
2022/01/06 19:22:43;;;;;;;48.10;44.40;;;;;;;7.97;100.00;101203.42;2009083;71;32939;-75
2022/01/06 19:28:28;;;;;;;47.20;43.67;;;;;;;8.01;100.00;101198.20;2014542;71;32928;-77
2022/01/06 19:34:14;;;;;;;44.13;41.10;;;;;;;8.03;100.00;101191.88;2016540;71;33355;-78
2022/01/06 19:39:58;;;;;;;45.73;42.50;;;;;;;7.99;100.00;101187.97;2011182;71;32941;-77
2022/01/06 19:45:42;;;;;;;44.37;41.20;;;;;;;8.01;100.00;101182.45;2016629;71;32871;-76
2022/01/06 19:51:26;;;;;;;43.67;40.87;;;;;;;8.01;100.00;101185.76;1997151;71;32783;-78
2022/01/06 19:57:11;;;;;;;43.30;40.30;;;;;;;7.95;100.00;101180.73;2009593;71;33380;-80
2022/01/06 20:03:00;;;;;;;41.77;38.80;;;;;;;8.04;100.00;101181.95;2000707;71;32967;-77
2022/01/06 20:08:46;;;;;;;43.07;40.07;;;;;;;8.07;100.00;101173.13;2006419;71;33338;-72
2022/01/06 20:14:31;;;;;;;43.77;40.87;;;;;;;8.04;100.00;101170.05;1998741;71;32875;-78
2022/01/06 20:20:18;;;;;;;41.87;38.90;;;;;;;8.09;100.00;101155.70;2013571;71;33424;-80
2022/01/06 20:26:03;;;;;;;41.47;38.20;;;;;;;8.14;100.00;101177.05;2017143;71;32891;-77
2022/01/06 20:31:47;;;;;;;44.40;41.20;;;;;;;8.18;100.00;101175.42;2016392;71;32939;-79
2022/01/06 20:37:32;;;;;;;44.10;41.10;;;;;;;8.19;100.00;101169.64;2011804;71;32834;-78
2022/01/06 20:43:16;;;;;;;42.57;39.47;;;;;;;8.14;100.00;101155.75;2004383;71;32875;-81
2022/01/06 20:55:03;;;;;;;40.93;37.93;;;;;;;8.05;100.00;101146.25;1995640;71;32816;-79
2022/01/06 21:00:49;;;;;;;41.43;38.50;;;;;;;8.15;100.00;101149.13;2009459;71;32915;-79
2022/01/06 21:06:34;;;;;;;41.93;38.73;;;;;;;8.11;100.00;101152.13;2008244;70;32875;-78
2022/01/06 21:12:20;;;;;;;43.53;40.43;;;;;;;8.12;100.00;101147.44;2004662;71;32821;-79
2022/01/06 21:18:08;;;;;;;42.00;38.90;;;;;;;8.16;100.00;101156.34;2015351;71;32936;-77
2022/01/06 21:23:53;;;;;;;43.00;39.80;;;;;;;8.11;100.00;101167.35;2004855;71;32781;-78
2022/01/06 21:29:39;;;;;;;45.80;42.30;;;;;;;8.01;100.00;101170.55;2015161;71;32881;-83
2022/01/06 21:35:27;;;;;;;45.10;42.00;;;;;;;7.90;100.00;101169.62;2009850;71;32774;-81
2022/01/06 21:41:13;;;;;;;42.70;39.50;;;;;;;7.74;100.00;101165.82;2007748;71;32787;-75
2022/01/06 21:47:05;;;;;;;42.13;39.03;;;;;;;7.69;100.00;101156.66;2010953;71;33321;-73
2022/01/06 21:53:06;;;;;;;43.87;40.67;;;;;;;7.87;100.00;101160.47;1986066;71;33249;-77
2022/01/06 21:58:55;;;;;;;44.30;40.80;;;;;;;7.92;100.00;101189.53;2003686;70;32908;-79
2022/01/06 22:04:45;;;;;;;45.07;41.57;;;;;;;7.97;100.00;101190.98;2009354;71;32889;-81
2022/01/06 22:10:30;;;;;;;45.03;41.40;;;;;;;7.97;100.00;101197.06;2007971;71;33059;-79
2022/01/06 22:16:15;;;;;;;43.73;39.67;;;;;;;7.99;100.00;101200.41;2011685;71;32826;-78
2022/01/06 22:22:13;;;;;;;45.63;41.70;;;;;;;8.09;100.00;101219.33;2014756;71;32979;-75
2022/01/06 22:28:14;;;;;;;46.73;43.10;;;;;;;7.18;100.00;101115.13;1998971;70;33341;-76
2022/01/06 22:34:02;;;;;;;48.07;44.23;;;;;;;7.76;100.00;101217.57;2005838;71;32995;-75
2022/01/06 22:39:46;;;;;;;50.27;46.27;;;;;;;7.75;100.00;101229.72;2014777;71;32828;-74
2022/01/06 22:45:31;;;;;;;47.13;43.30;;;;;;;7.74;100.00;101225.27;2009303;71;32942;-74
2022/01/06 22:51:15;;;;;;;51.07;47.03;;;;;;;7.63;100.00;101226.79;2001438;71;33355;-76
2022/01/06 22:57:06;;;;;;;49.73;45.33;;;;;;;7.48;100.00;101223.84;2013627;71;32862;-77
2022/01/06 23:02:48;;;;;;;51.70;47.50;;;;;;;7.34;100.00;101226.13;2016611;71;32871;-78
2022/01/06 23:08:33;;;;;;;51.37;47.03;;;;;;;7.24;100.00;101221.83;2018504;71;32911;-79
2022/01/06 23:14:17;;;;;;;53.47;49.47;;;;;;;7.18;100.00;101224.23;1998864;71;33231;-75
2022/01/06 23:20:02;;;;;;;53.27;49.23;;;;;;;7.14;100.00;101208.72;2010672;71;32766;-77
2022/01/06 23:25:46;;;;;;;50.53;46.87;;;;;;;7.07;100.00;101208.05;2013444;71;32934;-76
2022/01/06 23:31:30;;;;;;;52.30;48.50;;;;;;;7.03;100.00;101218.47;2006666;71;32771;-79
2022/01/06 23:37:15;;;;;;;52.17;48.50;;;;;;;6.96;100.00;101213.67;2000736;71;32846;-77
2022/01/06 23:43:00;;;;;;;53.10;49.00;;;;;;;7.01;100.00;101210.45;2015360;71;32817;-77
2022/01/06 23:48:45;;;;;;;49.00;45.70;;;;;;;7.00;100.00;101234.17;2001077;71;32837;-74
2022/01/06 23:54:29;;;;;;;48.30;45.10;;;;;;;7.10;100.00;101224.67;1999362;71;33327;-78
